createdAt,value
2023-01-24T00:00:43.466Z,51.47
2023-01-24T00:03:13.596Z,53.25
2023-01-24T00:05:42.391Z,56.03
2023-01-24T00:08:11.898Z,54.28
2023-01-24T00:10:39.376Z,56.40
2023-01-24T00:13:07.526Z,53.40
2023-01-24T00:15:34.613Z,53.03
2023-01-24T00:18:01.710Z,51.45
2023-01-24T00:20:28.875Z,48.45
2023-01-24T00:22:56.000Z,57.63
2023-01-24T00:25:23.850Z,53.35
2023-01-24T00:27:50.923Z,51.55
2023-01-24T00:30:18.159Z,51.00
2023-01-24T00:32:46.185Z,58.83
2023-01-24T00:35:13.675Z,53.42
2023-01-24T00:37:41.539Z,55.72
2023-01-24T00:40:10.301Z,54.15
2023-01-24T00:42:37.403Z,56.83
2023-01-24T00:45:05.961Z,56.30
2023-01-24T00:47:33.262Z,49.55
2023-01-24T00:50:00.279Z,55.30
2023-01-24T00:52:27.598Z,55.75
2023-01-24T00:54:55.043Z,58.33
2023-01-24T00:57:23.467Z,58.20
2023-01-24T00:59:50.606Z,49.22
2023-01-24T01:02:17.681Z,57.47
2023-01-24T01:04:44.807Z,51.17
2023-01-24T01:07:11.896Z,51.85
2023-01-24T01:09:39.106Z,51.33
2023-01-24T01:12:06.454Z,56.60
2023-01-24T01:14:33.541Z,47.88
2023-01-24T01:17:00.607Z,49.22
2023-01-24T01:19:27.854Z,56.20
2023-01-24T01:21:54.895Z,53.90
2023-01-24T01:24:21.954Z,51.13
2023-01-24T01:26:49.025Z,51.95
2023-01-24T01:29:16.138Z,54.42
2023-01-24T01:31:43.348Z,52.75
2023-01-24T01:34:12.018Z,48.20
2023-01-24T01:36:39.249Z,49.97
2023-01-24T01:39:07.205Z,50.17
2023-01-24T01:41:34.641Z,46.65
2023-01-24T01:44:48.259Z,53.03
2023-01-24T01:47:23.838Z,45.35
2023-01-24T01:50:16.093Z,50.00
2023-01-24T01:52:44.096Z,43.33
2023-01-24T01:55:17.918Z,44.28
2023-01-24T01:57:46.416Z,49.42
2023-01-24T02:00:21.297Z,46.55
2023-01-24T02:03:16.728Z,45.70
2023-01-24T02:05:44.318Z,52.95
2023-01-24T02:08:14.444Z,46.15
2023-01-24T02:11:00.513Z,48.67
2023-01-24T02:13:27.746Z,45.38
2023-01-24T02:16:04.111Z,47.80
2023-01-24T02:18:39.677Z,47.67
2023-01-24T02:21:12.658Z,44.58
2023-01-24T02:24:00.234Z,45.85
2023-01-24T02:26:29.572Z,45.03
2023-01-24T02:28:58.501Z,45.40
2023-01-24T02:31:26.153Z,46.05
2023-01-24T02:33:53.586Z,51.60
2023-01-24T02:36:34.073Z,51.35
2023-01-24T02:39:20.004Z,46.47
2023-01-24T02:41:51.011Z,46.13
2023-01-24T02:44:38.448Z,47.53
2023-01-24T02:47:05.634Z,44.47
2023-01-24T02:49:32.823Z,48.20
2023-01-24T02:52:18.476Z,48.42
2023-01-24T02:54:45.577Z,48.92
2023-01-24T02:57:31.414Z,48.15
2023-01-24T02:59:58.606Z,50.05
2023-01-24T03:02:26.596Z,46.80
2023-01-24T03:04:53.722Z,51.35
2023-01-24T03:07:21.133Z,45.72
2023-01-24T03:09:53.505Z,47.25
2023-01-24T03:12:42.226Z,49.60
2023-01-24T03:15:29.633Z,48.47
2023-01-24T03:18:18.329Z,47.40
2023-01-24T03:21:07.141Z,42.67
2023-01-24T03:23:53.233Z,43.88
2023-01-24T03:26:39.089Z,44.33
2023-01-24T03:29:25.529Z,42.20
2023-01-24T03:32:11.334Z,41.63
2023-01-24T03:34:50.205Z,46.60
2023-01-24T03:37:41.528Z,45.25
2023-01-24T03:40:14.837Z,44.45
2023-01-24T03:42:49.497Z,38.75
2023-01-24T03:45:27.348Z,40.90
2023-01-24T03:48:01.651Z,43.58
2023-01-24T03:50:51.005Z,38.90
2023-01-24T03:53:20.050Z,36.47
2023-01-24T03:55:53.670Z,40.67
2023-01-24T03:58:21.263Z,40.25
2023-01-24T04:00:48.860Z,45.00
2023-01-24T04:03:48.045Z,39.63
2023-01-24T04:06:15.498Z,40.85
2023-01-24T04:08:42.501Z,38.88
2023-01-24T04:11:09.696Z,38.13
2023-01-24T04:13:36.801Z,42.63
2023-01-24T04:16:04.044Z,47.72
2023-01-24T04:19:06.271Z,38.38
2023-01-24T04:21:33.357Z,43.05
2023-01-24T04:24:00.592Z,40.63
2023-01-24T04:26:29.172Z,39.55
2023-01-24T04:28:56.498Z,40.67
2023-01-24T04:31:23.848Z,43.90
2023-01-24T04:34:11.281Z,36.05
2023-01-24T04:36:40.661Z,39.95
2023-01-24T04:39:07.749Z,34.53
2023-01-24T04:41:48.677Z,36.88
2023-01-24T04:44:16.794Z,36.47
2023-01-24T04:46:44.652Z,34.85
2023-01-24T04:49:11.900Z,40.78
2023-01-24T04:51:44.039Z,38.20
2023-01-24T04:54:18.502Z,37.78
2023-01-24T04:56:47.951Z,34.97
2023-01-24T04:59:15.226Z,35.90
2023-01-24T05:01:44.052Z,33.17
2023-01-24T05:04:25.995Z,36.72
2023-01-24T05:06:53.115Z,36.35
2023-01-24T05:09:20.197Z,36.00
2023-01-24T05:11:56.275Z,36.40
2023-01-24T05:14:24.191Z,37.65
2023-01-24T05:16:51.562Z,37.17
2023-01-24T05:19:18.665Z,35.75
2023-01-24T05:21:46.014Z,36.97
2023-01-24T05:24:14.570Z,35.95
2023-01-24T05:26:41.786Z,35.45
2023-01-24T05:29:10.544Z,31.65
2023-01-24T05:31:39.127Z,35.30
2023-01-24T05:34:06.547Z,35.22
2023-01-24T05:36:34.033Z,32.47
2023-01-24T05:39:02.474Z,36.97
2023-01-24T05:41:31.749Z,34.83
2023-01-24T05:43:59.885Z,33.42
2023-01-24T05:46:30.957Z,32.88
2023-01-24T05:49:09.255Z,33.15
2023-01-24T05:51:36.524Z,33.78
2023-01-24T05:54:05.049Z,36.88
2023-01-24T05:56:54.646Z,38.55
2023-01-24T05:59:21.860Z,35.63
2023-01-24T06:01:48.937Z,34.90
2023-01-24T06:04:17.220Z,31.60
2023-01-24T06:06:44.267Z,37.05
2023-01-24T06:09:11.501Z,35.42
2023-01-24T06:11:39.348Z,36.33
2023-01-24T06:14:19.161Z,40.83
2023-01-24T06:16:48.088Z,34.45
2023-01-24T06:19:16.657Z,36.13
2023-01-24T06:21:46.404Z,31.30
2023-01-24T06:24:22.200Z,36.25
2023-01-24T06:27:13.682Z,31.48
2023-01-24T06:29:40.974Z,35.58
2023-01-24T06:32:13.662Z,34.10
2023-01-24T06:34:58.866Z,32.33
2023-01-24T06:37:51.769Z,31.38
2023-01-24T06:40:21.720Z,32.30
2023-01-24T06:42:49.225Z,32.85
2023-01-24T06:45:17.154Z,28.40
2023-01-24T06:47:45.074Z,29.88
2023-01-24T06:50:17.156Z,32.13
2023-01-24T06:52:49.064Z,27.85
2023-01-24T06:55:16.779Z,30.55
2023-01-24T06:57:44.967Z,32.97
2023-01-24T07:00:12.767Z,35.75
2023-01-24T07:02:39.943Z,35.28
2023-01-24T07:05:07.273Z,34.22
2023-01-24T07:07:34.403Z,30.08
2023-01-24T07:10:01.490Z,28.50
2023-01-24T07:12:28.543Z,32.15
2023-01-24T07:14:55.656Z,31.05
2023-01-24T07:17:22.967Z,29.52
2023-01-24T07:19:50.454Z,31.58
2023-01-24T07:22:17.849Z,32.25
2023-01-24T07:24:46.152Z,33.53
2023-01-24T07:27:13.456Z,31.15
2023-01-24T07:29:40.715Z,34.08
2023-01-24T07:32:09.824Z,32.00
2023-01-24T07:34:37.104Z,28.30
2023-01-24T07:37:04.144Z,30.17
2023-01-24T07:39:31.499Z,30.95
2023-01-24T07:41:58.675Z,30.02
2023-01-24T07:44:26.080Z,30.58
2023-01-24T07:46:53.209Z,33.20
2023-01-24T07:49:20.362Z,28.50
2023-01-24T07:51:49.439Z,28.20
2023-01-24T07:54:18.746Z,25.27
2023-01-24T07:56:45.769Z,25.97
2023-01-24T07:59:14.921Z,26.42
2023-01-24T08:01:42.208Z,28.60
2023-01-24T08:04:10.109Z,28.60
2023-01-24T08:06:37.121Z,27.95
2023-01-24T08:09:04.270Z,25.15
2023-01-24T08:11:31.387Z,25.00
2023-01-24T08:13:58.431Z,24.50
2023-01-24T08:16:27.248Z,25.75
2023-01-24T08:18:54.411Z,26.38
2023-01-24T08:21:21.454Z,25.10
2023-01-24T08:23:48.667Z,27.33
2023-01-24T08:26:15.760Z,26.38
2023-01-24T08:28:42.763Z,27.08
2023-01-24T08:31:09.939Z,29.67
2023-01-24T08:33:39.175Z,31.10
2023-01-24T08:36:06.869Z,27.97
2023-01-24T08:38:34.107Z,30.27
2023-01-24T08:41:04.428Z,31.90
2023-01-24T08:43:31.995Z,27.10
2023-01-24T08:45:59.100Z,30.10
2023-01-24T08:48:26.374Z,31.27
2023-01-24T08:50:53.483Z,33.40
2023-01-24T08:53:20.537Z,28.85
2023-01-24T08:55:51.461Z,27.88
2023-01-24T08:58:18.615Z,24.63
2023-01-24T09:00:45.711Z,25.30
2023-01-24T09:03:13.348Z,29.23
2023-01-24T09:05:40.398Z,25.08
2023-01-24T09:08:07.601Z,24.67
2023-01-24T09:10:34.864Z,27.80
2023-01-24T09:13:02.837Z,26.33
2023-01-24T09:15:29.943Z,27.23
2023-01-24T09:17:57.178Z,27.42
2023-01-24T09:20:24.444Z,24.25
2023-01-24T09:22:51.577Z,29.55
2023-01-24T09:25:18.701Z,25.98
2023-01-24T09:27:46.636Z,29.52
2023-01-24T09:30:14.334Z,30.13
2023-01-24T09:32:45.172Z,29.75
2023-01-24T09:35:12.363Z,31.05
2023-01-24T09:37:41.301Z,30.88
2023-01-24T09:40:19.480Z,29.05
2023-01-24T09:42:58.174Z,25.92
2023-01-24T09:45:38.281Z,25.30
2023-01-24T09:48:12.099Z,24.10
2023-01-24T09:50:52.633Z,24.60
2023-01-24T09:53:36.376Z,23.20
2023-01-24T09:56:05.464Z,24.60
2023-01-24T09:59:01.486Z,22.58
2023-01-24T10:01:28.504Z,24.23
2023-01-24T10:03:55.712Z,27.15
2023-01-24T10:06:27.520Z,23.95
2023-01-24T10:09:14.429Z,25.65
2023-01-24T10:11:59.835Z,25.13
2023-01-24T10:14:44.942Z,26.38
2023-01-24T10:17:28.827Z,25.20
2023-01-24T10:20:07.359Z,23.17
2023-01-24T10:23:03.799Z,23.13
2023-01-24T10:25:51.003Z,20.60
2023-01-24T10:28:34.241Z,24.02
2023-01-24T10:31:01.511Z,21.17
2023-01-24T10:33:34.278Z,19.35
2023-01-24T10:36:18.364Z,25.67
2023-01-24T10:38:45.453Z,25.38
2023-01-24T10:41:20.821Z,23.10
2023-01-24T10:43:54.881Z,24.20
2023-01-24T10:46:52.744Z,23.08
2023-01-24T10:49:29.913Z,22.00
2023-01-24T10:52:17.953Z,20.90
2023-01-24T10:54:56.665Z,20.92
2023-01-24T10:57:50.273Z,23.33
2023-01-24T11:00:29.171Z,22.17
2023-01-24T11:03:17.894Z,23.60
2023-01-24T11:05:49.453Z,20.50
2023-01-24T11:08:25.633Z,21.52
2023-01-24T11:10:57.950Z,23.48
2023-01-24T11:13:28.125Z,26.48
2023-01-24T11:16:05.145Z,23.30
2023-01-24T11:18:34.805Z,22.67
2023-01-24T11:21:09.496Z,22.10
2023-01-24T11:23:37.038Z,21.58
2023-01-24T11:26:06.067Z,25.63
2023-01-24T11:28:38.482Z,22.30
2023-01-24T11:31:15.740Z,22.35
2023-01-24T11:34:13.263Z,22.52
2023-01-24T11:36:43.250Z,24.90
2023-01-24T11:39:49.665Z,24.38
2023-01-24T11:42:35.361Z,25.45
2023-01-24T11:45:27.015Z,26.15
2023-01-24T11:48:21.344Z,24.13
2023-01-24T11:51:08.210Z,26.33
2023-01-24T11:54:15.774Z,24.70
2023-01-24T11:57:10.487Z,24.85
2023-01-24T12:00:02.936Z,26.50
2023-01-24T12:02:57.578Z,27.38
2023-01-24T12:05:41.395Z,28.40
2023-01-24T12:08:45.917Z,26.65
2023-01-24T12:11:35.660Z,24.10
2023-01-24T12:14:30.247Z,27.10
2023-01-24T12:17:18.548Z,27.33
2023-01-24T12:19:59.972Z,28.50
2023-01-24T12:22:29.435Z,29.80
2023-01-24T12:25:05.360Z,33.50
2023-01-24T12:27:37.153Z,27.08
2023-01-24T12:30:16.641Z,29.02
2023-01-24T12:32:53.783Z,28.63
2023-01-24T12:35:33.529Z,30.85
2023-01-24T12:38:10.451Z,32.50
2023-01-24T12:41:28.086Z,31.67
2023-01-24T12:44:23.926Z,28.33
2023-01-24T12:47:26.290Z,31.45
2023-01-24T12:49:59.859Z,28.98
2023-01-24T12:52:53.884Z,30.30
2023-01-24T12:55:32.874Z,31.27
2023-01-24T12:58:06.291Z,31.50
2023-01-24T13:01:07.887Z,30.05
2023-01-24T13:03:59.239Z,33.83
2023-01-24T13:06:48.895Z,29.40
2023-01-24T13:09:30.484Z,29.10
2023-01-24T13:12:00.205Z,30.73
2023-01-24T13:14:42.184Z,32.35
2023-01-24T13:17:27.737Z,30.42
2023-01-24T13:20:45.570Z,32.33
2023-01-24T13:23:36.816Z,31.77
2023-01-24T13:26:29.868Z,32.47
2023-01-24T13:29:34.131Z,30.60
2023-01-24T13:32:13.199Z,35.15
2023-01-24T13:34:47.813Z,33.45
2023-01-24T13:37:21.719Z,36.22
2023-01-24T13:39:59.515Z,32.13
2023-01-24T13:42:39.822Z,31.85
2023-01-24T13:45:27.935Z,33.60
2023-01-24T13:47:57.319Z,32.75
2023-01-24T13:50:28.189Z,31.47
2023-01-24T13:53:02.061Z,29.58
2023-01-24T13:55:31.195Z,34.15
2023-01-24T13:58:14.084Z,32.78
2023-01-24T14:00:57.903Z,37.38
2023-01-24T14:03:38.865Z,33.33
2023-01-24T14:06:10.569Z,37.58
2023-01-24T14:08:44.405Z,36.60
2023-01-24T14:11:20.585Z,32.53
2023-01-24T14:13:56.431Z,33.50
2023-01-24T14:16:29.389Z,37.20
2023-01-24T14:19:05.136Z,35.95
2023-01-24T14:21:45.832Z,32.88
2023-01-24T14:24:46.416Z,34.92
2023-01-24T14:27:36.766Z,40.17
2023-01-24T14:30:28.836Z,38.17
2023-01-24T14:33:06.114Z,35.67
2023-01-24T14:35:39.893Z,39.58
2023-01-24T14:38:18.565Z,35.78
2023-01-24T14:40:55.902Z,40.20
2023-01-24T14:43:33.548Z,37.88
2023-01-24T14:46:11.127Z,37.97
2023-01-24T14:48:38.521Z,41.08
2023-01-24T14:51:08.579Z,39.08
2023-01-24T14:53:36.135Z,38.03
2023-01-24T14:56:11.741Z,44.70
2023-01-24T14:58:38.894Z,37.90
2023-01-24T15:01:24.459Z,39.38
2023-01-24T15:03:51.736Z,40.30
2023-01-24T15:06:20.223Z,39.33
2023-01-24T15:08:48.632Z,43.33
2023-01-24T15:11:22.314Z,42.17
2023-01-24T15:13:53.265Z,43.00
2023-01-24T15:16:34.614Z,41.33
2023-01-24T15:19:07.271Z,46.20
2023-01-24T15:21:49.606Z,49.63
2023-01-24T15:24:28.938Z,48.85
2023-01-24T15:26:57.704Z,47.27
2023-01-24T15:29:47.384Z,47.25
2023-01-24T15:32:39.138Z,45.53
2023-01-24T15:35:31.899Z,45.25
2023-01-24T15:38:26.554Z,42.47
2023-01-24T15:41:16.368Z,41.10
2023-01-24T15:43:50.956Z,41.47
2023-01-24T15:46:58.842Z,43.78
2023-01-24T15:49:37.371Z,47.15
2023-01-24T15:52:06.553Z,44.83
2023-01-24T15:54:34.324Z,43.92
2023-01-24T15:57:04.337Z,48.85
2023-01-24T15:59:32.996Z,50.65
2023-01-24T16:02:03.062Z,50.55
2023-01-24T16:04:30.171Z,53.13
2023-01-24T16:06:57.323Z,53.47
2023-01-24T16:09:25.535Z,48.92
2023-01-24T16:11:52.642Z,48.50
2023-01-24T16:14:24.872Z,43.13
2023-01-24T16:16:55.711Z,46.65
2023-01-24T16:19:24.826Z,44.75
2023-01-24T16:21:52.732Z,47.63
2023-01-24T16:24:20.537Z,47.22
2023-01-24T16:26:53.446Z,51.10
2023-01-24T16:29:29.858Z,44.65
2023-01-24T16:31:57.406Z,49.38
2023-01-24T16:34:25.006Z,50.72
2023-01-24T16:36:52.182Z,48.85
2023-01-24T16:39:21.794Z,53.97
2023-01-24T16:41:50.367Z,50.28
2023-01-24T16:44:17.907Z,49.35
2023-01-24T16:46:50.225Z,50.33
2023-01-24T16:49:17.640Z,49.72
2023-01-24T16:51:46.115Z,52.17
2023-01-24T16:54:13.290Z,55.85
2023-01-24T16:56:40.441Z,50.60
2023-01-24T16:59:07.509Z,50.25
2023-01-24T17:01:34.529Z,49.28
2023-01-24T17:04:03.424Z,48.90
2023-01-24T17:06:30.503Z,50.55
2023-01-24T17:08:58.048Z,52.60
2023-01-24T17:11:25.164Z,50.40
2023-01-24T17:13:52.302Z,52.60
2023-01-24T17:16:19.543Z,54.30
2023-01-24T17:18:46.722Z,57.50
2023-01-24T17:21:16.235Z,58.63
2023-01-24T17:23:44.173Z,58.10
2023-01-24T17:26:14.328Z,54.50
2023-01-24T17:28:43.108Z,56.20
2023-01-24T17:31:17.542Z,56.15
2023-01-24T17:33:44.917Z,53.90
2023-01-24T17:36:14.287Z,53.25
2023-01-24T17:38:43.505Z,60.53
2023-01-24T17:41:14.891Z,61.30
2023-01-24T17:43:52.242Z,57.65
2023-01-24T17:46:19.758Z,56.70
2023-01-24T17:48:46.953Z,54.22
2023-01-24T17:51:21.057Z,58.15
2023-01-24T17:53:48.772Z,55.92
2023-01-24T17:56:17.761Z,56.22
2023-01-24T17:58:45.599Z,58.97
2023-01-24T18:01:16.123Z,60.90
2023-01-24T18:03:44.909Z,64.20
2023-01-24T18:06:12.657Z,63.72
2023-01-24T18:08:39.867Z,66.78
2023-01-24T18:11:09.139Z,78.28
2023-01-24T18:13:37.286Z,63.80
2023-01-24T18:16:11.150Z,68.75
2023-01-24T18:18:39.681Z,63.58
2023-01-24T18:21:14.307Z,74.47
2023-01-24T18:23:41.474Z,71.05
2023-01-24T18:26:09.713Z,56.95
2023-01-24T18:28:37.166Z,55.30
2023-01-24T18:31:11.933Z,56.17
2023-01-24T18:33:39.959Z,63.53
2023-01-24T18:36:18.611Z,48.78
2023-01-24T18:38:46.966Z,43.90
2023-01-24T18:41:15.112Z,47.15
2023-01-24T18:43:42.408Z,41.83
2023-01-24T18:46:12.702Z,32.70
2023-01-24T18:48:42.064Z,30.98
2023-01-24T18:51:20.373Z,27.80
2023-01-24T18:53:49.319Z,26.50
2023-01-24T18:56:19.907Z,29.95
2023-01-24T18:58:47.729Z,24.92
2023-01-24T19:01:20.699Z,17.02
2023-01-24T19:03:48.135Z,16.58
2023-01-24T19:06:15.656Z,16.42
2023-01-24T19:09:00.482Z,16.63
2023-01-24T19:11:30.626Z,16.63
2023-01-24T19:13:58.236Z,16.85
2023-01-24T19:16:25.507Z,17.02
2023-01-24T19:18:52.930Z,17.02
2023-01-24T19:21:20.487Z,20.58
2023-01-24T19:23:48.359Z,20.50
2023-01-24T19:26:16.991Z,20.05
2023-01-24T19:28:44.591Z,23.40
2023-01-24T19:31:11.844Z,21.73
2023-01-24T19:33:39.084Z,19.65
2023-01-24T19:36:08.332Z,20.77
2023-01-24T19:38:35.767Z,16.77
2023-01-24T19:41:07.558Z,19.58
2023-01-24T19:43:37.504Z,17.42
2023-01-24T19:48:53.055Z,17.48
2023-01-24T19:51:20.661Z,22.70
2023-01-24T19:53:50.634Z,20.90
2023-01-24T19:56:18.684Z,21.60
2023-01-24T19:58:46.034Z,24.75
2023-01-24T20:01:18.707Z,21.02
2023-01-24T20:03:46.743Z,23.13
2023-01-24T20:06:17.058Z,20.02
2023-01-24T20:08:48.451Z,20.23
2023-01-24T20:11:16.104Z,21.17
2023-01-24T20:13:43.714Z,20.52
2023-01-24T20:16:22.072Z,20.30
2023-01-24T20:18:57.152Z,21.63
2023-01-24T20:21:26.734Z,20.08
2023-01-24T20:23:55.743Z,27.08
2023-01-24T20:26:22.987Z,20.35
2023-01-24T20:28:50.342Z,22.33
2023-01-24T20:31:17.491Z,21.85
2023-01-24T20:33:47.557Z,22.75
2023-01-24T20:36:15.797Z,25.10
2023-01-24T20:38:42.882Z,25.02
2023-01-24T20:41:16.147Z,26.92
2023-01-24T20:43:44.292Z,21.20
2023-01-24T20:46:14.098Z,23.23
2023-01-24T20:48:41.219Z,22.25
2023-01-24T20:51:08.769Z,22.73
2023-01-24T20:53:36.595Z,22.45
2023-01-24T20:56:06.100Z,27.05
2023-01-24T20:58:34.279Z,20.75
2023-01-24T21:01:24.223Z,20.60
2023-01-24T21:03:52.841Z,24.13
2023-01-24T21:06:21.913Z,26.05
2023-01-24T21:08:49.620Z,24.33
2023-01-24T21:11:22.173Z,23.45
2023-01-24T21:13:54.267Z,24.38
2023-01-24T21:16:23.038Z,26.00
2023-01-24T21:18:53.236Z,26.00
2023-01-24T21:21:24.776Z,26.42
2023-01-24T21:23:52.066Z,26.83
2023-01-24T21:26:20.373Z,27.38
2023-01-24T21:28:49.978Z,34.92
2023-01-24T21:31:20.529Z,33.55
2023-01-24T21:33:49.062Z,29.48
2023-01-24T21:36:21.472Z,27.65
2023-01-24T21:38:50.110Z,26.77
2023-01-24T21:41:42.417Z,30.70
2023-01-24T21:44:10.960Z,29.25
2023-01-24T21:46:38.254Z,31.45
2023-01-24T21:49:05.844Z,30.15
2023-01-24T21:51:52.988Z,28.90
2023-01-24T21:54:34.316Z,31.70
2023-01-24T21:57:31.355Z,29.25
2023-01-24T22:00:01.093Z,33.88
2023-01-24T22:02:32.605Z,34.80
2023-01-24T22:05:00.818Z,32.47
2023-01-24T22:07:30.405Z,31.50
2023-01-24T22:09:59.211Z,31.90
2023-01-24T22:12:27.796Z,36.85
2023-01-24T22:14:55.528Z,31.63
2023-01-24T22:17:24.427Z,36.80
2023-01-24T22:19:54.222Z,38.38
2023-01-24T22:22:27.273Z,40.45
2023-01-24T22:25:17.732Z,39.15
2023-01-24T22:27:46.688Z,37.80
2023-01-24T22:30:20.391Z,35.00
2023-01-24T22:32:48.270Z,45.20
2023-01-24T22:35:17.555Z,36.33
2023-01-24T22:37:47.486Z,38.90
2023-01-24T22:40:16.907Z,37.95
2023-01-24T22:42:44.307Z,34.83
2023-01-24T22:45:11.719Z,35.38
2023-01-24T22:47:39.101Z,36.67
2023-01-24T22:50:06.541Z,33.67
2023-01-24T22:52:36.700Z,31.80
2023-01-24T22:57:31.129Z,27.95
2023-01-24T22:59:58.631Z,33.85
2023-01-24T23:02:25.808Z,30.42
2023-01-24T23:04:52.915Z,35.80
2023-01-24T23:07:22.661Z,31.40
2023-01-24T23:09:50.343Z,36.53
2023-01-24T23:12:36.104Z,40.72
2023-01-24T23:15:22.039Z,56.30
2023-01-24T23:17:52.124Z,40.05
2023-01-24T23:23:04.579Z,32.65
2023-01-24T23:25:31.865Z,31.55
2023-01-24T23:27:58.869Z,37.55
2023-01-24T23:30:42.117Z,34.13
2023-01-24T23:33:33.188Z,30.15
2023-01-24T23:36:01.697Z,34.72
2023-01-24T23:38:30.679Z,35.03
2023-01-24T23:40:58.275Z,35.67
2023-01-24T23:43:25.483Z,34.97
2023-01-24T23:45:52.546Z,33.47
2023-01-24T23:48:20.601Z,41.05
2023-01-24T23:50:56.618Z,38.17
2023-01-24T23:53:24.712Z,34.92
2023-01-24T23:55:52.127Z,35.42
2023-01-24T23:58:19.257Z,32.97
